Calverton, Maryland
Current Conditions -  °F | °C
As of 1:10 PM on Thursday 30 Oct 2014 (Local Time) from KCGS Reporting Station
Broken Clouds Broken Clouds  
Wind Chill: 59°   Ceiling: 4800
Heat Index: 59°   Visibility: 10mi
Dew Point: 37°   Wind: 8mph
Humidity: 45%   Direction: 340°NNW
Pressure: 30.04"   Gusts: NA
Location:  39.0435°N, 76.8995°W
Report Text: KCGS 301710Z AUTO 34007KT 10SM BKN048 BKN060 15/03 A3004 RMK AO1
Loading
Personal Weather Stations






























Interactive Weather Map
Tropical Storm Tracking
New forecast layout! Learn more

10-Day Weather Forecast

Advertisements
Track Severe Weather on mobile